createdAt,value
2019-06-10T00:01:21.316Z,2.80
2019-06-10T00:03:51.713Z,3.97
2019-06-10T00:06:21.102Z,3.50
2019-06-10T00:08:50.701Z,3.63
2019-06-10T00:11:21.323Z,3.47
2019-06-10T00:13:50.796Z,3.63
2019-06-10T00:16:20.832Z,3.37
2019-06-10T00:18:51.059Z,3.80
2019-06-10T00:21:21.735Z,3.73
2019-06-10T00:23:51.766Z,3.53
2019-06-10T00:26:21.601Z,3.43
2019-06-10T00:28:51.444Z,4.13
2019-06-10T00:31:20.846Z,4.20
2019-06-10T00:33:51.991Z,4.47
2019-06-10T00:36:21.576Z,4.70
2019-06-10T00:38:51.832Z,3.93
2019-06-10T00:41:21.879Z,4.57
2019-06-10T00:43:51.788Z,3.77
2019-06-10T00:46:21.296Z,4.67
2019-06-10T00:48:51.011Z,3.80
2019-06-10T00:51:20.994Z,3.63
2019-06-10T00:53:51.396Z,3.70
2019-06-10T00:56:21.700Z,3.40
2019-06-10T00:58:51.369Z,4.00
2019-06-10T01:01:21.932Z,3.97
2019-06-10T01:03:51.221Z,5.10
2019-06-10T01:06:21.309Z,4.30
2019-06-10T01:08:51.206Z,4.43
2019-06-10T01:11:26.677Z,3.83
2019-06-10T01:13:51.462Z,4.80
2019-06-10T01:16:21.703Z,3.83
2019-06-10T01:18:53.435Z,3.90
2019-06-10T01:21:22.061Z,4.23
2019-06-10T01:23:51.330Z,4.10
2019-06-10T01:26:21.594Z,3.80
2019-06-10T01:28:51.691Z,3.20
2019-06-10T01:31:24.226Z,3.90
2019-06-10T01:33:53.031Z,3.40
2019-06-10T01:36:22.246Z,4.00
2019-06-10T01:38:51.433Z,3.50
2019-06-10T01:41:21.446Z,3.10
2019-06-10T01:43:51.288Z,3.33
2019-06-10T01:46:21.108Z,3.70
2019-06-10T01:48:52.067Z,3.30
2019-06-10T01:51:21.638Z,3.33
2019-06-10T01:53:51.436Z,3.17
2019-06-10T01:56:21.505Z,2.93
2019-06-10T01:58:51.416Z,3.97
2019-06-10T02:01:30.703Z,3.77
2019-06-10T02:04:00.883Z,3.70
2019-06-10T02:06:31.627Z,3.47
2019-06-10T02:09:07.278Z,3.97
2019-06-10T02:11:37.420Z,4.37
2019-06-10T02:14:07.081Z,4.67
2019-06-10T02:16:36.420Z,5.13
2019-06-10T02:19:05.800Z,5.30
2019-06-10T02:21:34.923Z,5.30
2019-06-10T02:24:04.165Z,6.00
2019-06-10T02:26:33.278Z,5.03
2019-06-10T02:29:02.471Z,5.27
2019-06-10T02:31:37.255Z,4.63
2019-06-10T02:34:02.832Z,4.80
2019-06-10T02:36:36.591Z,4.73
2019-06-10T02:39:04.640Z,5.60
2019-06-10T02:41:36.333Z,5.27
2019-06-10T02:44:04.958Z,5.43
2019-06-10T02:46:36.167Z,5.40
2019-06-10T02:49:20.538Z,6.00
2019-06-10T02:51:36.165Z,6.83
2019-06-10T02:54:05.347Z,7.80
2019-06-10T02:56:36.496Z,9.53
2019-06-10T02:59:05.439Z,9.57
2019-06-10T03:01:38.122Z,9.43
2019-06-10T03:04:05.494Z,9.33
2019-06-10T03:06:39.302Z,8.63
2019-06-10T03:09:06.308Z,9.17
2019-06-10T03:11:37.063Z,9.70
2019-06-10T03:14:06.361Z,9.23
2019-06-10T03:16:42.302Z,9.27
2019-06-10T03:19:13.311Z,9.23
2019-06-10T03:21:42.923Z,10.57
2019-06-10T03:24:13.213Z,9.60
2019-06-10T03:26:42.839Z,9.00
2019-06-10T03:29:12.915Z,8.93
2019-06-10T03:31:47.645Z,9.37
2019-06-10T03:34:14.873Z,7.93
2019-06-10T03:36:43.958Z,8.33
2019-06-10T03:39:13.406Z,6.33
2019-06-10T03:41:42.577Z,8.00
2019-06-10T03:44:13.193Z,7.13
2019-06-10T03:46:43.124Z,7.97
2019-06-10T03:49:12.767Z,7.60
2019-06-10T03:51:42.858Z,7.10
2019-06-10T03:54:13.082Z,6.93
2019-06-10T03:56:43.096Z,7.40
2019-06-10T03:59:12.474Z,7.27
2019-06-10T04:01:42.598Z,6.93
2019-06-10T04:04:13.015Z,7.50
2019-06-10T04:06:44.205Z,7.30
2019-06-10T04:09:13.311Z,7.53
2019-06-10T04:11:43.290Z,6.93
2019-06-10T04:14:13.097Z,7.97
2019-06-10T04:16:43.316Z,6.80
2019-06-10T04:19:13.124Z,7.80
2019-06-10T04:21:43.311Z,7.27
2019-06-10T04:24:12.941Z,7.93
2019-06-10T04:26:43.452Z,7.27
2019-06-10T04:29:13.048Z,7.53
2019-06-10T04:31:42.586Z,8.23
2019-06-10T04:34:12.580Z,8.27
2019-06-10T04:36:42.374Z,7.83
2019-06-10T04:39:12.494Z,8.17
2019-06-10T04:41:42.669Z,8.23
2019-06-10T04:44:13.148Z,8.13
2019-06-10T04:46:42.881Z,8.20
2019-06-10T04:49:13.108Z,7.53
2019-06-10T04:51:43.429Z,7.50
2019-06-10T04:54:13.504Z,7.67
2019-06-10T04:56:43.066Z,7.50
2019-06-10T04:59:12.678Z,6.83
2019-06-10T05:01:42.615Z,6.77
2019-06-10T05:04:12.559Z,6.23
2019-06-10T05:06:42.321Z,6.27
2019-06-10T05:09:12.427Z,6.53
2019-06-10T05:11:43.028Z,6.17
2019-06-10T05:14:13.210Z,6.37
2019-06-10T05:16:43.410Z,5.97
2019-06-10T05:19:12.979Z,6.40
2019-06-10T05:21:42.562Z,6.50
2019-06-10T05:24:12.484Z,6.53
2019-06-10T05:26:42.490Z,7.40
2019-06-10T05:29:12.221Z,6.90
2019-06-10T05:31:43.576Z,6.63
2019-06-10T05:34:13.150Z,6.50
2019-06-10T05:36:43.566Z,9.03
2019-06-10T05:39:13.033Z,7.57
2019-06-10T05:41:43.250Z,7.40
2019-06-10T05:44:13.491Z,7.10
2019-06-10T05:46:43.725Z,7.20
2019-06-10T05:49:13.347Z,7.07
2019-06-10T05:51:42.613Z,8.07
2019-06-10T05:54:12.864Z,7.10
2019-06-10T05:56:43.241Z,6.83
2019-06-10T05:59:12.866Z,7.77
2019-06-10T06:01:43.206Z,6.97
2019-06-10T06:04:12.879Z,7.00
2019-06-10T06:06:44.926Z,7.10
2019-06-10T06:09:13.151Z,6.20
2019-06-10T06:11:43.094Z,6.70
2019-06-10T06:14:13.328Z,6.60
2019-06-10T06:16:43.499Z,6.20
2019-06-10T06:19:12.834Z,6.00
2019-06-10T06:21:47.459Z,6.30
2019-06-10T06:24:14.161Z,6.90
2019-06-10T06:26:43.524Z,7.10
2019-06-10T06:29:13.088Z,6.87
2019-06-10T06:31:43.054Z,7.37
2019-06-10T06:34:13.869Z,8.00
2019-06-10T06:36:43.236Z,7.47
2019-06-10T06:39:12.990Z,7.20
2019-06-10T06:41:42.852Z,7.97
2019-06-10T06:44:13.035Z,6.97
2019-06-10T06:46:43.106Z,6.07
2019-06-10T06:49:12.891Z,6.87
2019-06-10T06:51:53.941Z,6.37
2019-06-10T06:54:13.149Z,5.90
2019-06-10T06:56:43.699Z,6.93
2019-06-10T06:59:13.433Z,6.03
2019-06-10T07:01:44.248Z,7.47
2019-06-10T07:04:13.783Z,7.67
2019-06-10T07:06:43.525Z,8.73
2019-06-10T07:09:13.483Z,8.13
2019-06-10T07:11:45.258Z,8.80
2019-06-10T07:14:14.750Z,7.83
2019-06-10T07:16:46.329Z,8.33
2019-06-10T07:19:14.784Z,9.53
2019-06-10T07:22:02.348Z,9.20
2019-06-10T07:24:14.803Z,8.50
2019-06-10T07:26:50.883Z,8.10
2019-06-10T07:29:14.850Z,7.40
2019-06-10T07:31:46.707Z,6.93
2019-06-10T07:34:14.881Z,7.60
2019-06-10T07:36:45.493Z,6.70
2019-06-10T07:39:14.778Z,6.37
2019-06-10T07:41:47.409Z,5.40
2019-06-10T07:44:14.990Z,5.22
2019-06-10T07:46:45.723Z,4.93
2019-06-10T07:49:14.925Z,4.90
2019-06-10T07:51:46.306Z,5.15
2019-06-10T07:54:15.310Z,3.50
2019-06-10T07:56:50.454Z,4.25
2019-06-10T07:59:15.466Z,3.95
2019-06-10T08:01:50.970Z,4.17
2019-06-10T08:04:15.490Z,4.83
2019-06-10T08:06:45.893Z,4.35
2019-06-10T08:09:15.028Z,4.30
2019-06-10T08:11:46.829Z,4.55
2019-06-10T08:14:15.092Z,4.45
2019-06-10T08:16:46.668Z,4.50
2019-06-10T08:19:30.034Z,3.87
2019-06-10T08:21:49.207Z,4.85
2019-06-10T08:24:17.833Z,3.92
2019-06-10T08:26:47.775Z,3.87
2019-06-10T08:29:16.971Z,4.42
2019-06-10T08:31:48.441Z,3.47
2019-06-10T08:34:17.032Z,4.25
2019-06-10T08:36:50.106Z,3.50
2019-06-10T08:39:17.041Z,3.83
2019-06-10T08:41:49.054Z,3.98
2019-06-10T08:44:17.143Z,3.25
2019-06-10T08:46:47.244Z,3.40
2019-06-10T08:49:17.297Z,2.98
2019-06-10T08:51:48.866Z,2.92
2019-06-10T08:54:17.320Z,2.33
2019-06-10T08:56:50.321Z,3.30
2019-06-10T08:59:17.355Z,3.10
2019-06-10T09:01:51.461Z,3.30
2019-06-10T09:04:17.705Z,3.00
2019-06-10T09:06:50.358Z,3.05
2019-06-10T09:09:17.692Z,2.50
2019-06-10T09:11:49.679Z,2.60
2019-06-10T09:14:17.988Z,3.20
2019-06-10T09:16:48.963Z,2.65
2019-06-10T09:19:18.003Z,2.58
2019-06-10T09:21:51.094Z,2.95
2019-06-10T09:24:18.006Z,2.90
2019-06-10T09:26:50.147Z,2.77
2019-06-10T09:29:18.078Z,2.47
2019-06-10T09:31:51.302Z,2.70
2019-06-10T09:34:18.179Z,2.67
2019-06-10T09:36:50.163Z,2.72
2019-06-10T09:39:18.174Z,3.08
2019-06-10T09:41:54.120Z,3.42
2019-06-10T09:44:18.177Z,2.85
2019-06-10T09:46:53.708Z,2.83
2019-06-10T09:49:22.875Z,2.50
2019-06-10T09:51:56.364Z,2.02
2019-06-10T09:54:23.335Z,2.92
2019-06-10T09:56:54.684Z,2.60
2019-06-10T09:59:23.618Z,2.47
2019-06-10T10:01:58.725Z,2.50
2019-06-10T10:04:23.800Z,2.87
2019-06-10T10:06:57.202Z,2.85
2019-06-10T10:09:24.468Z,2.62
2019-06-10T10:11:55.310Z,2.52
2019-06-10T10:14:24.570Z,3.37
2019-06-10T10:16:59.906Z,3.60
2019-06-10T10:19:24.791Z,3.65
2019-06-10T10:21:58.211Z,3.90
2019-06-10T10:24:24.921Z,3.40
2019-06-10T10:26:57.534Z,3.30
2019-06-10T10:29:25.143Z,3.40
2019-06-10T10:31:54.288Z,3.40
2019-06-10T10:34:23.761Z,3.62
2019-06-10T10:36:56.763Z,3.17
2019-06-10T10:39:24.629Z,2.70
2019-06-10T10:41:56.600Z,2.72
2019-06-10T10:44:24.776Z,2.87
2019-06-10T10:46:55.753Z,2.87
2019-06-10T10:49:25.027Z,2.25
2019-06-10T10:51:54.165Z,2.35
2019-06-10T10:54:32.982Z,2.77
2019-06-10T10:56:58.663Z,2.30
2019-06-10T10:59:25.157Z,2.17
2019-06-10T11:01:54.366Z,2.15
2019-06-10T11:04:23.551Z,2.30
2019-06-10T11:06:55.637Z,2.47
2019-06-10T11:09:26.276Z,1.90
2019-06-10T11:11:58.964Z,2.55
2019-06-10T11:14:29.396Z,2.52
2019-06-10T11:16:58.978Z,2.55
2019-06-10T11:19:28.290Z,2.42
2019-06-10T11:21:57.898Z,2.30
2019-06-10T11:24:36.648Z,2.90
2019-06-10T11:26:58.449Z,2.27
2019-06-10T11:29:27.679Z,2.52
2019-06-10T11:31:58.615Z,2.37
2019-06-10T11:34:27.751Z,2.60
2019-06-10T11:36:58.207Z,2.37
2019-06-10T11:39:27.511Z,2.22
2019-06-10T11:41:57.723Z,2.12
2019-06-10T11:44:26.991Z,2.70
2019-06-10T11:46:58.140Z,2.50
2019-06-10T11:49:27.044Z,3.20
2019-06-10T11:51:57.956Z,2.87
2019-06-10T11:54:27.088Z,2.50
2019-06-10T11:56:58.065Z,2.95
2019-06-10T11:59:27.137Z,2.52
2019-06-10T12:01:59.932Z,2.60
2019-06-10T12:04:27.229Z,2.55
2019-06-10T12:06:57.063Z,2.47
2019-06-10T12:09:26.317Z,2.98
2019-06-10T12:12:01.391Z,2.75
2019-06-10T12:14:27.211Z,2.30
2019-06-10T12:19:27.383Z,2.58
2019-06-10T12:22:01.390Z,3.05
2019-06-10T12:24:27.425Z,2.83
2019-06-10T12:26:59.560Z,3.20
2019-06-10T12:29:27.515Z,2.45
2019-06-10T12:32:00.147Z,2.72
2019-06-10T12:34:27.562Z,2.55
2019-06-10T12:37:03.555Z,3.10
2019-06-10T12:39:27.558Z,3.15
2019-06-10T12:41:58.378Z,3.10
2019-06-10T12:44:27.590Z,4.12
2019-06-10T12:47:00.886Z,2.70
2019-06-10T12:49:28.953Z,2.60
2019-06-10T12:51:59.172Z,2.87
2019-06-10T12:54:28.459Z,2.60
2019-06-10T12:56:58.065Z,2.60
2019-06-10T12:59:27.221Z,2.60
2019-06-10T13:01:58.065Z,2.85
2019-06-10T13:04:27.489Z,2.75
2019-06-10T13:07:00.200Z,2.75
2019-06-10T13:09:32.563Z,2.98
2019-06-10T13:12:02.111Z,2.90
2019-06-10T13:14:32.621Z,3.37
2019-06-10T13:17:03.020Z,3.02
2019-06-10T13:19:34.362Z,2.58
2019-06-10T13:22:05.723Z,3.17
2019-06-10T13:24:34.695Z,2.62
2019-06-10T13:27:06.374Z,2.47
2019-06-10T13:29:34.803Z,2.98
2019-06-10T13:32:06.086Z,2.65
2019-06-10T13:34:34.907Z,3.27
2019-06-10T13:37:06.782Z,2.40
2019-06-10T13:39:34.983Z,3.33
2019-06-10T13:42:07.713Z,3.00
2019-06-10T13:44:35.082Z,3.25
2019-06-10T13:47:07.012Z,3.35
2019-06-10T13:49:35.281Z,2.65
2019-06-10T13:52:09.127Z,2.55
2019-06-10T13:54:35.492Z,3.08
2019-06-10T13:57:06.891Z,2.85
2019-06-10T13:59:35.525Z,3.08
2019-06-10T14:02:08.124Z,2.80
2019-06-10T14:04:35.655Z,3.35
2019-06-10T14:07:08.658Z,3.02
2019-06-10T14:09:35.712Z,3.35
2019-06-10T14:12:05.920Z,3.17
2019-06-10T14:14:34.999Z,3.10
2019-06-10T14:17:05.625Z,2.27
2019-06-10T14:19:34.861Z,3.08
2019-06-10T14:22:06.428Z,3.40
2019-06-10T14:24:35.028Z,3.15
2019-06-10T14:27:06.811Z,2.92
2019-06-10T14:29:35.108Z,2.90
2019-06-10T14:32:05.710Z,3.00
2019-06-10T14:34:34.943Z,3.12
2019-06-10T14:37:04.102Z,2.87
2019-06-10T14:39:33.289Z,3.08
2019-06-10T14:42:04.900Z,2.80
2019-06-10T14:44:33.249Z,3.75
2019-06-10T14:47:03.014Z,2.85
2019-06-10T14:49:33.026Z,3.58
2019-06-10T14:52:02.791Z,3.50
2019-06-10T14:54:32.287Z,3.12
2019-06-10T14:57:02.691Z,2.87
2019-06-10T14:59:31.935Z,3.12
2019-06-10T15:02:02.800Z,3.10
2019-06-10T15:04:33.219Z,3.92
2019-06-10T15:07:03.566Z,3.35
2019-06-10T15:09:33.540Z,3.27
2019-06-10T15:12:02.992Z,3.40
2019-06-10T15:14:32.468Z,3.27
2019-06-10T15:17:02.751Z,3.95
2019-06-10T15:19:33.235Z,3.75
2019-06-10T15:22:03.023Z,3.72
2019-06-10T15:24:33.469Z,3.83
2019-06-10T15:27:13.112Z,3.30
2019-06-10T15:29:33.597Z,3.52
2019-06-10T15:32:14.056Z,3.62
2019-06-10T15:34:33.727Z,3.62
2019-06-10T15:37:03.005Z,3.20
2019-06-10T15:39:33.340Z,3.12
2019-06-10T15:42:03.142Z,3.70
2019-06-10T15:44:52.309Z,3.27
2019-06-10T15:47:03.354Z,3.30
2019-06-10T15:49:32.818Z,3.33
2019-06-10T15:52:03.305Z,3.30
2019-06-10T15:54:33.342Z,3.50
2019-06-10T15:57:03.274Z,4.22
2019-06-10T15:59:32.722Z,4.22
2019-06-10T16:02:02.542Z,4.33
2019-06-10T16:04:35.069Z,4.45
2019-06-10T16:07:03.094Z,3.77
2019-06-10T16:09:32.301Z,3.77
2019-06-10T16:12:02.922Z,4.90
2019-06-10T16:14:33.260Z,3.42
2019-06-10T16:17:03.145Z,4.10
2019-06-10T16:19:32.946Z,3.67
2019-06-10T16:22:03.185Z,3.27
2019-06-10T16:24:33.260Z,4.05
2019-06-10T16:27:03.406Z,3.92
2019-06-10T16:29:33.404Z,3.75
2019-06-10T16:32:02.824Z,4.40
2019-06-10T16:34:32.561Z,4.00
2019-06-10T16:37:02.350Z,4.50
2019-06-10T16:39:32.568Z,4.58
2019-06-10T16:42:02.977Z,4.30
2019-06-10T16:44:32.967Z,4.40
2019-06-10T16:47:03.192Z,4.70
2019-06-10T16:49:32.908Z,3.52
2019-06-10T16:52:02.898Z,4.28
2019-06-10T16:54:32.982Z,3.72
2019-06-10T16:57:03.856Z,3.92
2019-06-10T16:59:33.098Z,3.85
2019-06-10T17:02:02.423Z,4.37
2019-06-10T17:04:33.120Z,4.50
2019-06-10T17:07:02.577Z,5.17
2019-06-10T17:09:32.799Z,4.85
2019-06-10T17:12:02.422Z,4.67
2019-06-10T17:14:33.532Z,5.08
2019-06-10T17:17:03.588Z,4.40
2019-06-10T17:19:33.505Z,3.90
2019-06-10T17:22:02.720Z,4.62
2019-06-10T17:24:33.850Z,4.17
2019-06-10T17:27:02.888Z,5.45
2019-06-10T17:29:33.463Z,6.53
2019-06-10T17:32:02.986Z,5.95
2019-06-10T17:34:33.952Z,4.80
2019-06-10T17:37:03.260Z,4.35
2019-06-10T17:39:34.552Z,5.67
2019-06-10T17:42:03.361Z,4.22
2019-06-10T17:44:32.615Z,4.80
2019-06-10T17:47:02.338Z,4.67
2019-06-10T17:49:34.421Z,4.50
2019-06-10T17:52:02.721Z,5.00
2019-06-10T17:54:32.451Z,4.77
2019-06-10T17:57:02.500Z,5.37
2019-06-10T17:59:34.041Z,4.67
2019-06-10T18:02:03.094Z,4.37
2019-06-10T18:04:33.615Z,5.03
2019-06-10T18:07:02.911Z,4.60
2019-06-10T18:09:34.704Z,4.92
2019-06-10T18:12:02.935Z,5.25
2019-06-10T18:14:33.312Z,5.30
2019-06-10T18:17:03.153Z,5.65
2019-06-10T18:19:36.791Z,6.30
2019-06-10T18:22:03.220Z,5.27
2019-06-10T18:24:33.056Z,5.15
2019-06-10T18:27:02.401Z,5.15
2019-06-10T18:29:34.092Z,4.83
2019-06-10T18:32:03.460Z,5.20
2019-06-10T18:34:36.293Z,5.50
2019-06-10T18:37:03.854Z,5.50
2019-06-10T18:39:33.568Z,6.17
2019-06-10T18:42:03.425Z,5.40
2019-06-10T18:44:35.385Z,6.45
2019-06-10T18:47:03.601Z,5.80
2019-06-10T18:49:35.555Z,6.05
2019-06-10T18:52:03.845Z,5.85
2019-06-10T18:54:35.614Z,7.47
2019-06-10T18:57:04.022Z,6.22
2019-06-10T18:59:36.082Z,5.90
2019-06-10T19:02:06.367Z,6.45
2019-06-10T19:04:38.368Z,6.95
2019-06-10T19:07:07.648Z,6.92
2019-06-10T19:09:39.494Z,6.17
2019-06-10T19:12:07.921Z,6.67
2019-06-10T19:14:38.356Z,6.62
2019-06-10T19:17:07.636Z,6.03
2019-06-10T19:19:38.139Z,6.47
2019-06-10T19:22:09.361Z,6.80
2019-06-10T19:24:39.795Z,6.37
2019-06-10T19:27:09.245Z,7.03
2019-06-10T19:29:45.467Z,7.33
2019-06-10T19:32:09.443Z,7.33
2019-06-10T19:34:39.435Z,7.57
2019-06-10T19:37:08.699Z,7.00
2019-06-10T19:39:45.131Z,6.47
2019-06-10T19:42:09.443Z,6.90
2019-06-10T19:44:38.908Z,7.55
2019-06-10T19:47:08.337Z,6.73
2019-06-10T19:49:38.635Z,6.85
2019-06-10T19:52:07.832Z,7.03
2019-06-10T19:54:37.054Z,7.47
2019-06-10T19:57:06.418Z,7.07
2019-06-10T19:59:52.634Z,6.70
2019-06-10T20:02:08.659Z,7.10
2019-06-10T20:04:37.766Z,8.20
2019-06-10T20:07:06.954Z,7.62
2019-06-10T20:09:36.102Z,7.67
2019-06-10T20:12:05.436Z,7.23
2019-06-10T20:14:34.681Z,7.43
2019-06-10T20:17:04.049Z,7.33
2019-06-10T20:19:33.283Z,7.93
2019-06-10T20:22:02.494Z,8.57
2019-06-10T20:24:33.894Z,7.10
2019-06-10T20:27:03.172Z,7.80
2019-06-10T20:29:32.888Z,9.30
2019-06-10T20:32:02.108Z,8.78
2019-06-10T20:34:31.424Z,7.40
2019-06-10T20:37:02.455Z,7.30
2019-06-10T20:39:32.962Z,6.92
2019-06-10T20:42:02.876Z,7.50
2019-06-10T20:44:32.560Z,7.30
2019-06-10T20:47:01.797Z,7.47
2019-06-10T20:49:32.601Z,7.40
2019-06-10T20:52:10.914Z,7.57
2019-06-10T20:54:32.729Z,6.47
2019-06-10T20:57:04.081Z,6.70
2019-06-10T20:59:33.290Z,5.33
2019-06-10T21:02:03.183Z,5.90
2019-06-10T21:04:32.483Z,4.67
2019-06-10T21:07:02.859Z,5.22
2019-06-10T21:09:32.782Z,4.03
2019-06-10T21:12:02.204Z,4.50
2019-06-10T21:14:33.119Z,4.67
2019-06-10T21:17:03.015Z,4.37
2019-06-10T21:19:33.134Z,4.23
2019-06-10T21:22:02.841Z,3.40
2019-06-10T21:24:32.417Z,3.50
2019-06-10T21:27:01.547Z,3.10
2019-06-10T21:29:32.300Z,4.20
2019-06-10T21:32:03.541Z,4.60
2019-06-10T21:34:32.695Z,4.80
2019-06-10T21:37:03.278Z,4.83
2019-06-10T21:39:32.618Z,4.70
2019-06-10T21:42:02.436Z,5.00
2019-06-10T21:44:32.023Z,5.93
2019-06-10T21:47:02.462Z,5.67
2019-06-10T21:49:32.253Z,5.70
2019-06-10T21:52:02.916Z,6.30
2019-06-10T21:54:33.011Z,6.37
2019-06-10T21:57:02.755Z,6.57
2019-06-10T21:59:32.247Z,6.63
2019-06-10T22:02:02.283Z,7.87
2019-06-10T22:04:32.671Z,6.67
2019-06-10T22:07:03.202Z,9.03
2019-06-10T22:09:32.515Z,8.73
2019-06-10T22:12:02.865Z,9.03
2019-06-10T22:14:32.962Z,9.87
2019-06-10T22:17:03.045Z,9.10
2019-06-10T22:19:32.404Z,8.77
2019-06-10T22:22:02.768Z,8.60
2019-06-10T22:24:31.988Z,8.33
2019-06-10T22:27:02.727Z,8.57
2019-06-10T22:29:32.305Z,9.10
2019-06-10T22:32:02.624Z,7.70
2019-06-10T22:34:32.948Z,8.43
2019-06-10T22:37:03.196Z,8.07
2019-06-10T22:39:32.650Z,8.17
2019-06-10T22:42:03.019Z,9.13
2019-06-10T22:44:33.119Z,9.50
2019-06-10T22:47:02.920Z,9.10
2019-06-10T22:49:32.847Z,9.30
2019-06-10T22:52:02.118Z,9.87
2019-06-10T22:54:32.311Z,10.70
2019-06-10T22:57:02.866Z,9.83
2019-06-10T22:59:32.133Z,10.07
2019-06-10T23:02:03.062Z,10.40
2019-06-10T23:04:33.173Z,10.90
2019-06-10T23:07:03.180Z,12.53
2019-06-10T23:09:32.584Z,11.93
2019-06-10T23:12:02.930Z,12.03
2019-06-10T23:14:33.198Z,11.07
2019-06-10T23:17:03.175Z,11.40
2019-06-10T23:19:33.154Z,12.50
2019-06-10T23:22:03.006Z,12.27
2019-06-10T23:24:32.429Z,12.40
2019-06-10T23:27:03.369Z,13.30
2019-06-10T23:29:32.958Z,10.90
2019-06-10T23:32:06.827Z,10.20
2019-06-10T23:34:33.163Z,9.63
2019-06-10T23:37:02.377Z,9.47
2019-06-10T23:39:33.468Z,8.90
2019-06-10T23:42:04.280Z,9.03
2019-06-10T23:44:33.252Z,7.90
2019-06-10T23:47:03.838Z,8.50
2019-06-10T23:49:33.253Z,8.73
2019-06-10T23:52:04.887Z,9.87
2019-06-10T23:54:33.263Z,10.37
2019-06-10T23:57:05.444Z,9.47
2019-06-10T23:59:33.359Z,9.37
